Terminal Aerodrome Forecast
Issued by NWS Portland, ME

Home | Current Version | Previous Version | Text Only | Print | Product List | Glossary On
Versions: 1 2 3 4 5 6 7 8 9 10 11 12 13 14 15 16 17 18 19
000
FTUS41 KGYX 291120
TAFPWM
TAF
KPWM 291120Z 2912/3012 36008KT P6SM FEW060
      TEMPO 2912/2916 BKN050
     FM291600 16008KT P6SM SCT050
     FM300000 16003KT 5SM HZ OVC250
     FM300300 17002KT 1SM BR OVC001=

USA.gov is the U.S. government's official web portal to all federal, state and local government web resources and services.